Winthrop, Washington
Current Conditions -  °F | °C
As of 6:53 AM on Monday 24 Nov 2014 (Local Time) from KOMK Reporting Station
Clear Clear  
Wind Chill: 22°   Ceiling: Unl
Heat Index: 22°   Visibility: 10mi
Dew Point: 19°   Wind: 3mph
Humidity: 89%   Direction: 280°W
Pressure: 30.32"   Gusts: NA
Location:  48.48°N, 120.19°W
Report Text: KOMK 241453Z AUTO 28003KT 10SM CLR M06/M07 A3032 RMK AO2 SLP284 I3000 T10561072 50008
Loading
Personal Weather Stations






























Interactive Weather Map New forecast layout! Learn more

10-Day Weather Forecast

Advertisements
Track Severe Weather on mobile